sensor_id;sensor_type;location;lat;lon;timestamp;P1;durP1;ratioP1;P2;durP2;ratioP2
30462;SDS011;17256;43.618;25.336;2022-08-19T00:34:03;7.77;;;6.97;;
30462;SDS011;17256;43.618;25.336;2022-08-19T00:38:03;8.27;;;7.67;;
30462;SDS011;17256;43.618;25.336;2022-08-19T01:28:58;10.23;;;9.07;;
30462;SDS011;17256;43.618;25.336;2022-08-19T01:31:34;10.17;;;9.20;;
30462;SDS011;17256;43.618;25.336;2022-08-19T04:22:41;21.23;;;11.83;;
30462;SDS011;17256;43.618;25.336;2022-08-19T04:25:13;13.90;;;11.23;;
30462;SDS011;17256;43.618;25.336;2022-08-19T04:31:55;19.20;;;11.20;;
30462;SDS011;17256;43.618;25.336;2022-08-19T04:34:26;21.90;;;11.03;;
30462;SDS011;17256;43.618;25.336;2022-08-19T04:36:56;23.87;;;12.47;;
30462;SDS011;17256;43.618;25.336;2022-08-19T04:39:24;31.43;;;12.93;;
30462;SDS011;17256;43.618;25.336;2022-08-19T04:42:14;14.70;;;11.17;;
30462;SDS011;17256;43.618;25.336;2022-08-19T04:45:15;18.60;;;11.53;;
30462;SDS011;17256;43.618;25.336;2022-08-19T04:47:42;15.20;;;11.30;;
30462;SDS011;17256;43.618;25.336;2022-08-19T04:50:09;17.70;;;12.07;;
30462;SDS011;17256;43.618;25.336;2022-08-19T04:52:37;13.10;;;11.47;;
30462;SDS011;17256;43.618;25.336;2022-08-19T04:55:09;12.47;;;11.17;;
30462;SDS011;17256;43.618;25.336;2022-08-19T04:57:36;15.43;;;12.23;;
30462;SDS011;17256;43.618;25.336;2022-08-19T05:00:05;17.53;;;11.97;;
30462;SDS011;17256;43.618;25.336;2022-08-19T05:02:32;14.27;;;12.83;;
30462;SDS011;17256;43.618;25.336;2022-08-19T05:04:58;16.50;;;11.30;;
30462;SDS011;17256;43.618;25.336;2022-08-19T05:07:25;13.20;;;11.20;;
30462;SDS011;17256;43.618;25.336;2022-08-19T05:09:52;12.93;;;11.33;;
30462;SDS011;17256;43.618;25.336;2022-08-19T05:12:17;15.43;;;10.57;;
30462;SDS011;17256;43.618;25.336;2022-08-19T05:14:44;21.77;;;11.37;;
30462;SDS011;17256;43.618;25.336;2022-08-19T05:17:12;15.30;;;11.37;;
30462;SDS011;17256;43.618;25.336;2022-08-19T05:19:38;26.03;;;11.97;;
30462;SDS011;17256;43.618;25.336;2022-08-19T05:22:22;20.33;;;11.73;;
30462;SDS011;17256;43.618;25.336;2022-08-19T05:24:58;22.30;;;10.97;;
30462;SDS011;17256;43.618;25.336;2022-08-19T05:27:24;16.67;;;10.87;;
30462;SDS011;17256;43.618;25.336;2022-08-19T05:29:49;14.60;;;11.13;;
30462;SDS011;17256;43.618;25.336;2022-08-19T05:32:15;14.23;;;11.07;;
30462;SDS011;17256;43.618;25.336;2022-08-19T05:34:41;16.53;;;10.57;;
30462;SDS011;17256;43.618;25.336;2022-08-19T05:37:07;12.13;;;10.80;;
30462;SDS011;17256;43.618;25.336;2022-08-19T05:39:34;14.17;;;10.23;;
30462;SDS011;17256;43.618;25.336;2022-08-19T05:42:03;13.37;;;10.80;;
30462;SDS011;17256;43.618;25.336;2022-08-19T05:44:34;12.47;;;10.87;;
30462;SDS011;17256;43.618;25.336;2022-08-19T05:47:02;13.83;;;11.53;;
30462;SDS011;17256;43.618;25.336;2022-08-19T05:49:29;12.67;;;11.33;;
30462;SDS011;17256;43.618;25.336;2022-08-19T05:51:57;12.47;;;11.47;;
30462;SDS011;17256;43.618;25.336;2022-08-19T05:54:24;12.33;;;11.10;;
30462;SDS011;17256;43.618;25.336;2022-08-19T05:56:51;16.47;;;12.23;;
30462;SDS011;17256;43.618;25.336;2022-08-19T05:59:18;13.67;;;12.43;;
30462;SDS011;17256;43.618;25.336;2022-08-19T06:01:46;13.07;;;11.73;;
30462;SDS011;17256;43.618;25.336;2022-08-19T06:04:17;11.77;;;10.63;;
30462;SDS011;17256;43.618;25.336;2022-08-19T06:06:48;11.70;;;10.67;;
30462;SDS011;17256;43.618;25.336;2022-08-19T06:09:17;10.80;;;9.83;;
30462;SDS011;17256;43.618;25.336;2022-08-19T06:11:51;11.93;;;10.70;;
30462;SDS011;17256;43.618;25.336;2022-08-19T06:14:24;10.70;;;9.63;;
30462;SDS011;17256;43.618;25.336;2022-08-19T06:16:57;10.80;;;9.90;;
30462;SDS011;17256;43.618;25.336;2022-08-19T06:19:25;11.97;;;10.37;;
30462;SDS011;17256;43.618;25.336;2022-08-19T06:21:52;10.90;;;9.77;;
30462;SDS011;17256;43.618;25.336;2022-08-19T06:24:22;12.83;;;9.43;;
30462;SDS011;17256;43.618;25.336;2022-08-19T06:26:49;10.97;;;9.63;;
30462;SDS011;17256;43.618;25.336;2022-08-19T06:29:18;10.43;;;9.53;;
30462;SDS011;17256;43.618;25.336;2022-08-19T06:31:46;14.03;;;9.30;;
30462;SDS011;17256;43.618;25.336;2022-08-19T06:34:15;10.03;;;8.83;;
30462;SDS011;17256;43.618;25.336;2022-08-19T06:36:42;9.93;;;8.90;;
30462;SDS011;17256;43.618;25.336;2022-08-19T06:39:11;9.73;;;8.77;;
30462;SDS011;17256;43.618;25.336;2022-08-19T06:41:41;10.13;;;8.87;;
30462;SDS011;17256;43.618;25.336;2022-08-19T06:44:15;11.30;;;8.67;;
30462;SDS011;17256;43.618;25.336;2022-08-19T06:46:43;11.77;;;9.10;;
30462;SDS011;17256;43.618;25.336;2022-08-19T06:49:09;8.70;;;7.90;;
30462;SDS011;17256;43.618;25.336;2022-08-19T06:51:39;9.90;;;8.27;;
30462;SDS011;17256;43.618;25.336;2022-08-19T06:54:06;9.37;;;8.57;;
30462;SDS011;17256;43.618;25.336;2022-08-19T06:56:32;8.97;;;8.17;;
30462;SDS011;17256;43.618;25.336;2022-08-19T06:59:06;9.13;;;8.23;;
30462;SDS011;17256;43.618;25.336;2022-08-19T07:01:35;18.43;;;9.27;;
30462;SDS011;17256;43.618;25.336;2022-08-19T07:04:03;18.73;;;10.30;;
30462;SDS011;17256;43.618;25.336;2022-08-19T07:06:32;10.33;;;7.87;;
30462;SDS011;17256;43.618;25.336;2022-08-19T07:08:58;13.17;;;8.53;;
30462;SDS011;17256;43.618;25.336;2022-08-19T07:11:23;9.87;;;7.63;;
30462;SDS011;17256;43.618;25.336;2022-08-19T07:13:49;8.13;;;7.23;;
30462;SDS011;17256;43.618;25.336;2022-08-19T07:16:16;9.33;;;7.93;;
30462;SDS011;17256;43.618;25.336;2022-08-19T07:18:50;8.30;;;7.47;;
30462;SDS011;17256;43.618;25.336;2022-08-19T07:21:23;9.50;;;8.00;;
30462;SDS011;17256;43.618;25.336;2022-08-19T07:23:52;8.60;;;7.70;;
30462;SDS011;17256;43.618;25.336;2022-08-19T07:26:24;9.80;;;8.90;;
30462;SDS011;17256;43.618;25.336;2022-08-19T07:28:51;8.65;;;7.85;;
30462;SDS011;17256;43.618;25.336;2022-08-19T07:31:21;9.00;;;8.20;;
30462;SDS011;17256;43.618;25.336;2022-08-19T07:33:49;7.93;;;7.20;;
30462;SDS011;17256;43.618;25.336;2022-08-19T07:36:17;9.25;;;8.05;;
30462;SDS011;17256;43.618;25.336;2022-08-19T07:38:46;8.73;;;7.90;;
30462;SDS011;17256;43.618;25.336;2022-08-19T07:41:15;8.65;;;7.72;;
30462;SDS011;17256;43.618;25.336;2022-08-19T07:43:43;10.02;;;8.50;;
30462;SDS011;17256;43.618;25.336;2022-08-19T07:46:10;9.02;;;7.13;;
30462;SDS011;17256;43.618;25.336;2022-08-19T07:48:38;9.02;;;8.15;;
30462;SDS011;17256;43.618;25.336;2022-08-19T07:51:06;9.10;;;7.55;;
30462;SDS011;17256;43.618;25.336;2022-08-19T07:53:34;8.90;;;8.07;;
30462;SDS011;17256;43.618;25.336;2022-08-19T07:56:03;9.48;;;8.43;;
30462;SDS011;17256;43.618;25.336;2022-08-19T07:58:31;7.85;;;7.25;;
30462;SDS011;17256;43.618;25.336;2022-08-19T08:00:59;12.85;;;7.80;;
30462;SDS011;17256;43.618;25.336;2022-08-19T08:03:26;8.82;;;8.02;;
30462;SDS011;17256;43.618;25.336;2022-08-19T08:06:15;8.20;;;7.07;;
30462;SDS011;17256;43.618;25.336;2022-08-19T08:09:02;8.55;;;7.55;;
30462;SDS011;17256;43.618;25.336;2022-08-19T08:14:26;8.88;;;7.25;;
30462;SDS011;17256;43.618;25.336;2022-08-19T08:16:54;8.18;;;7.15;;
30462;SDS011;17256;43.618;25.336;2022-08-19T08:19:21;7.72;;;6.57;;
30462;SDS011;17256;43.618;25.336;2022-08-19T08:21:49;8.80;;;6.75;;
30462;SDS011;17256;43.618;25.336;2022-08-19T08:24:17;11.18;;;7.78;;
30462;SDS011;17256;43.618;25.336;2022-08-19T08:26:43;8.05;;;6.78;;
30462;SDS011;17256;43.618;25.336;2022-08-19T08:29:10;7.82;;;7.00;;
30462;SDS011;17256;43.618;25.336;2022-08-19T08:31:38;8.27;;;6.32;;
30462;SDS011;17256;43.618;25.336;2022-08-19T08:34:06;6.88;;;6.22;;
30462;SDS011;17256;43.618;25.336;2022-08-19T08:36:35;6.50;;;6.00;;
30462;SDS011;17256;43.618;25.336;2022-08-19T08:39:17;7.60;;;6.88;;
30462;SDS011;17256;43.618;25.336;2022-08-19T08:44:38;7.47;;;6.65;;
30462;SDS011;17256;43.618;25.336;2022-08-19T08:47:14;8.75;;;6.85;;
30462;SDS011;17256;43.618;25.336;2022-08-19T08:49:48;6.25;;;5.75;;
30462;SDS011;17256;43.618;25.336;2022-08-19T08:52:26;7.13;;;5.82;;
30462;SDS011;17256;43.618;25.336;2022-08-19T08:54:57;7.10;;;6.40;;
30462;SDS011;17256;43.618;25.336;2022-08-19T08:57:32;6.50;;;6.05;;
30462;SDS011;17256;43.618;25.336;2022-08-19T09:00:04;9.13;;;6.70;;
30462;SDS011;17256;43.618;25.336;2022-08-19T09:02:32;6.40;;;5.90;;
30462;SDS011;17256;43.618;25.336;2022-08-19T09:04:58;7.88;;;7.28;;
30462;SDS011;17256;43.618;25.336;2022-08-19T09:16:10;7.75;;;7.10;;
30462;SDS011;17256;43.618;25.336;2022-08-19T09:18:44;7.35;;;6.75;;
30462;SDS011;17256;43.618;25.336;2022-08-19T09:21:13;8.27;;;7.50;;
30462;SDS011;17256;43.618;25.336;2022-08-19T09:23:40;8.50;;;6.78;;
30462;SDS011;17256;43.618;25.336;2022-08-19T09:26:06;7.63;;;6.82;;
30462;SDS011;17256;43.618;25.336;2022-08-19T09:28:39;8.75;;;7.90;;
30462;SDS011;17256;43.618;25.336;2022-08-19T09:31:09;7.25;;;6.13;;
30462;SDS011;17256;43.618;25.336;2022-08-19T09:33:35;9.52;;;6.90;;
30462;SDS011;17256;43.618;25.336;2022-08-19T09:36:05;7.38;;;6.63;;
30462;SDS011;17256;43.618;25.336;2022-08-19T09:38:33;7.60;;;6.90;;
30462;SDS011;17256;43.618;25.336;2022-08-19T09:41:03;9.40;;;7.68;;
30462;SDS011;17256;43.618;25.336;2022-08-19T09:43:34;11.93;;;7.13;;
30462;SDS011;17256;43.618;25.336;2022-08-19T09:46:02;7.47;;;6.68;;
30462;SDS011;17256;43.618;25.336;2022-08-19T09:48:31;9.48;;;7.15;;
30462;SDS011;17256;43.618;25.336;2022-08-19T09:51:04;7.85;;;7.13;;
30462;SDS011;17256;43.618;25.336;2022-08-19T09:53:34;8.93;;;7.45;;
30462;SDS011;17256;43.618;25.336;2022-08-19T09:56:00;10.45;;;6.55;;
30462;SDS011;17256;43.618;25.336;2022-08-19T09:58:27;9.32;;;7.13;;
30462;SDS011;17256;43.618;25.336;2022-08-19T10:00:55;9.18;;;7.57;;
30462;SDS011;17256;43.618;25.336;2022-08-19T10:03:22;8.30;;;7.40;;
30462;SDS011;17256;43.618;25.336;2022-08-19T10:05:48;8.82;;;6.93;;
30462;SDS011;17256;43.618;25.336;2022-08-19T10:08:14;10.23;;;6.88;;
30462;SDS011;17256;43.618;25.336;2022-08-19T10:10:44;40.72;;;9.70;;
30462;SDS011;17256;43.618;25.336;2022-08-19T10:13:11;7.50;;;6.32;;
30462;SDS011;17256;43.618;25.336;2022-08-19T10:15:37;8.27;;;7.47;;
30462;SDS011;17256;43.618;25.336;2022-08-19T10:18:06;18.95;;;8.18;;
30462;SDS011;17256;43.618;25.336;2022-08-19T10:20:32;8.48;;;7.40;;
30462;SDS011;17256;43.618;25.336;2022-08-19T10:23:00;7.57;;;6.97;;
30462;SDS011;17256;43.618;25.336;2022-08-19T10:25:26;11.57;;;8.57;;
30462;SDS011;17256;43.618;25.336;2022-08-19T10:27:52;7.65;;;6.95;;
30462;SDS011;17256;43.618;25.336;2022-08-19T10:30:20;9.18;;;8.18;;
30462;SDS011;17256;43.618;25.336;2022-08-19T10:32:46;8.05;;;7.32;;
30462;SDS011;17256;43.618;25.336;2022-08-19T10:35:12;9.30;;;6.88;;
30462;SDS011;17256;43.618;25.336;2022-08-19T10:37:39;7.75;;;7.15;;
30462;SDS011;17256;43.618;25.336;2022-08-19T10:40:05;8.73;;;7.90;;
30462;SDS011;17256;43.618;25.336;2022-08-19T10:42:33;10.63;;;7.60;;
30462;SDS011;17256;43.618;25.336;2022-08-19T10:45:00;9.73;;;7.13;;
30462;SDS011;17256;43.618;25.336;2022-08-19T10:47:26;9.20;;;7.22;;
30462;SDS011;17256;43.618;25.336;2022-08-19T10:49:52;8.07;;;7.32;;
30462;SDS011;17256;43.618;25.336;2022-08-19T10:52:42;8.70;;;7.85;;
30462;SDS011;17256;43.618;25.336;2022-08-19T10:55:09;9.73;;;8.65;;
30462;SDS011;17256;43.618;25.336;2022-08-19T10:57:54;8.30;;;7.60;;
30462;SDS011;17256;43.618;25.336;2022-08-19T11:00:20;9.32;;;7.35;;
30462;SDS011;17256;43.618;25.336;2022-08-19T11:02:47;8.10;;;7.45;;
30462;SDS011;17256;43.618;25.336;2022-08-19T11:05:13;7.57;;;6.97;;
30462;SDS011;17256;43.618;25.336;2022-08-19T11:07:40;8.05;;;7.45;;
30462;SDS011;17256;43.618;25.336;2022-08-19T11:10:08;7.75;;;6.90;;
30462;SDS011;17256;43.618;25.336;2022-08-19T11:12:38;10.30;;;7.70;;
30462;SDS011;17256;43.618;25.336;2022-08-19T11:15:06;7.85;;;7.20;;
30462;SDS011;17256;43.618;25.336;2022-08-19T11:17:37;10.90;;;8.48;;
30462;SDS011;17256;43.618;25.336;2022-08-19T11:20:06;9.93;;;7.55;;
30462;SDS011;17256;43.618;25.336;2022-08-19T11:22:32;8.57;;;7.90;;
30462;SDS011;17256;43.618;25.336;2022-08-19T11:24:57;8.43;;;7.72;;
30462;SDS011;17256;43.618;25.336;2022-08-19T11:27:23;8.18;;;7.38;;
30462;SDS011;17256;43.618;25.336;2022-08-19T11:29:49;8.55;;;7.68;;
30462;SDS011;17256;43.618;25.336;2022-08-19T11:32:14;8.85;;;8.05;;
30462;SDS011;17256;43.618;25.336;2022-08-19T11:34:41;10.77;;;7.75;;
30462;SDS011;17256;43.618;25.336;2022-08-19T11:37:07;9.30;;;7.97;;
30462;SDS011;17256;43.618;25.336;2022-08-19T11:39:34;9.98;;;7.40;;
30462;SDS011;17256;43.618;25.336;2022-08-19T11:42:02;7.68;;;6.97;;
30462;SDS011;17256;43.618;25.336;2022-08-19T11:44:48;8.05;;;7.35;;
30462;SDS011;17256;43.618;25.336;2022-08-19T11:47:14;8.10;;;7.30;;
30462;SDS011;17256;43.618;25.336;2022-08-19T11:49:40;8.68;;;7.82;;
30462;SDS011;17256;43.618;25.336;2022-08-19T11:52:06;8.38;;;7.43;;
30462;SDS011;17256;43.618;25.336;2022-08-19T11:54:46;8.50;;;7.75;;
30462;SDS011;17256;43.618;25.336;2022-08-19T11:57:12;7.35;;;6.70;;
30462;SDS011;17256;43.618;25.336;2022-08-19T11:59:40;10.18;;;8.15;;
30462;SDS011;17256;43.618;25.336;2022-08-19T12:02:05;8.18;;;7.45;;
30462;SDS011;17256;43.618;25.336;2022-08-19T12:04:31;9.15;;;8.20;;
30462;SDS011;17256;43.618;25.336;2022-08-19T12:06:56;9.15;;;8.35;;
30462;SDS011;17256;43.618;25.336;2022-08-19T12:09:22;8.38;;;7.57;;
30462;SDS011;17256;43.618;25.336;2022-08-19T12:11:47;7.57;;;6.97;;
30462;SDS011;17256;43.618;25.336;2022-08-19T12:14:13;9.48;;;8.48;;
30462;SDS011;17256;43.618;25.336;2022-08-19T12:16:39;7.25;;;6.53;;
30462;SDS011;17256;43.618;25.336;2022-08-19T12:19:06;8.60;;;7.85;;
30462;SDS011;17256;43.618;25.336;2022-08-19T12:21:33;8.48;;;7.28;;
30462;SDS011;17256;43.618;25.336;2022-08-19T12:24:00;8.40;;;7.57;;
30462;SDS011;17256;43.618;25.336;2022-08-19T12:26:28;7.90;;;7.18;;
30462;SDS011;17256;43.618;25.336;2022-08-19T12:28:56;7.93;;;7.13;;
30462;SDS011;17256;43.618;25.336;2022-08-19T12:31:24;7.43;;;6.78;;
30462;SDS011;17256;43.618;25.336;2022-08-19T12:33:53;8.63;;;7.10;;
30462;SDS011;17256;43.618;25.336;2022-08-19T12:36:18;7.50;;;6.90;;
30462;SDS011;17256;43.618;25.336;2022-08-19T12:38:44;7.32;;;6.65;;
30462;SDS011;17256;43.618;25.336;2022-08-19T12:41:13;8.82;;;8.02;;
30462;SDS011;17256;43.618;25.336;2022-08-19T12:43:42;8.82;;;7.85;;
30462;SDS011;17256;43.618;25.336;2022-08-19T12:46:08;7.85;;;7.10;;
30462;SDS011;17256;43.618;25.336;2022-08-19T12:48:35;7.82;;;6.57;;
30462;SDS011;17256;43.618;25.336;2022-08-19T12:51:05;7.88;;;7.18;;
30462;SDS011;17256;43.618;25.336;2022-08-19T12:53:33;8.88;;;7.50;;
30462;SDS011;17256;43.618;25.336;2022-08-19T12:55:59;8.60;;;7.75;;
30462;SDS011;17256;43.618;25.336;2022-08-19T12:58:25;8.27;;;7.55;;
30462;SDS011;17256;43.618;25.336;2022-08-19T13:00:52;7.53;;;6.82;;
30462;SDS011;17256;43.618;25.336;2022-08-19T13:03:18;8.07;;;7.32;;
30462;SDS011;17256;43.618;25.336;2022-08-19T13:05:47;7.72;;;7.03;;
30462;SDS011;17256;43.618;25.336;2022-08-19T13:08:15;8.00;;;7.30;;
30462;SDS011;17256;43.618;25.336;2022-08-19T13:10:42;7.82;;;7.22;;
30462;SDS011;17256;43.618;25.336;2022-08-19T13:13:08;7.97;;;7.28;;
30462;SDS011;17256;43.618;25.336;2022-08-19T13:15:36;8.85;;;6.50;;
30462;SDS011;17256;43.618;25.336;2022-08-19T13:18:08;8.02;;;7.38;;
30462;SDS011;17256;43.618;25.336;2022-08-19T13:20:35;7.38;;;6.70;;
30462;SDS011;17256;43.618;25.336;2022-08-19T13:25:38;7.00;;;6.47;;
30462;SDS011;17256;43.618;25.336;2022-08-19T13:28:03;7.13;;;6.47;;
30462;SDS011;17256;43.618;25.336;2022-08-19T13:30:31;8.13;;;7.32;;
30462;SDS011;17256;43.618;25.336;2022-08-19T13:33:15;7.75;;;6.90;;
30462;SDS011;17256;43.618;25.336;2022-08-19T13:36:00;9.13;;;6.95;;
30462;SDS011;17256;43.618;25.336;2022-08-19T13:38:26;8.40;;;7.63;;
30462;SDS011;17256;43.618;25.336;2022-08-19T13:40:53;11.13;;;7.18;;
30462;SDS011;17256;43.618;25.336;2022-08-19T13:43:21;7.47;;;6.85;;
30462;SDS011;17256;43.618;25.336;2022-08-19T13:45:48;8.55;;;7.13;;
30462;SDS011;17256;43.618;25.336;2022-08-19T13:48:18;10.88;;;6.82;;
30462;SDS011;17256;43.618;25.336;2022-08-19T13:50:44;7.00;;;6.40;;
30462;SDS011;17256;43.618;25.336;2022-08-19T13:53:12;7.85;;;7.13;;
30462;SDS011;17256;43.618;25.336;2022-08-19T13:55:38;7.43;;;6.72;;
30462;SDS011;17256;43.618;25.336;2022-08-19T13:58:05;7.60;;;6.68;;
30462;SDS011;17256;43.618;25.336;2022-08-19T14:00:32;8.05;;;7.05;;
30462;SDS011;17256;43.618;25.336;2022-08-19T14:03:00;7.43;;;6.72;;
30462;SDS011;17256;43.618;25.336;2022-08-19T14:05:27;7.30;;;5.85;;
30462;SDS011;17256;43.618;25.336;2022-08-19T14:07:53;7.65;;;6.90;;
30462;SDS011;17256;43.618;25.336;2022-08-19T14:10:20;8.25;;;6.22;;
30462;SDS011;17256;43.618;25.336;2022-08-19T14:12:46;8.48;;;6.40;;
30462;SDS011;17256;43.618;25.336;2022-08-19T14:15:13;6.82;;;6.22;;
30462;SDS011;17256;43.618;25.336;2022-08-19T14:17:39;6.95;;;6.43;;
30462;SDS011;17256;43.618;25.336;2022-08-19T14:20:07;6.97;;;6.13;;
30462;SDS011;17256;43.618;25.336;2022-08-19T14:22:38;6.75;;;6.15;;
30462;SDS011;17256;43.618;25.336;2022-08-19T14:25:06;9.02;;;7.57;;
30462;SDS011;17256;43.618;25.336;2022-08-19T14:27:34;9.77;;;6.55;;
30462;SDS011;17256;43.618;25.336;2022-08-19T14:30:04;7.30;;;6.70;;
30462;SDS011;17256;43.618;25.336;2022-08-19T14:32:32;7.28;;;6.55;;
30462;SDS011;17256;43.618;25.336;2022-08-19T14:34:58;11.57;;;6.80;;
30462;SDS011;17256;43.618;25.336;2022-08-19T14:37:24;7.13;;;6.43;;
30462;SDS011;17256;43.618;25.336;2022-08-19T14:39:50;10.63;;;6.93;;
30462;SDS011;17256;43.618;25.336;2022-08-19T14:42:16;10.50;;;7.40;;
30462;SDS011;17256;43.618;25.336;2022-08-19T14:44:41;6.93;;;6.38;;
30462;SDS011;17256;43.618;25.336;2022-08-19T14:47:07;7.88;;;6.60;;
30462;SDS011;17256;43.618;25.336;2022-08-19T14:49:35;7.70;;;6.97;;
30462;SDS011;17256;43.618;25.336;2022-08-19T14:52:01;7.40;;;6.47;;
30462;SDS011;17256;43.618;25.336;2022-08-19T14:54:28;6.88;;;6.38;;
30462;SDS011;17256;43.618;25.336;2022-08-19T14:56:54;7.47;;;6.30;;
30462;SDS011;17256;43.618;25.336;2022-08-19T14:59:20;6.78;;;6.22;;
30462;SDS011;17256;43.618;25.336;2022-08-19T15:01:49;6.80;;;6.20;;
30462;SDS011;17256;43.618;25.336;2022-08-19T15:04:16;8.23;;;7.43;;
30462;SDS011;17256;43.618;25.336;2022-08-19T15:06:41;6.93;;;6.43;;
30462;SDS011;17256;43.618;25.336;2022-08-19T15:09:08;6.47;;;5.88;;
30462;SDS011;17256;43.618;25.336;2022-08-19T15:11:34;6.57;;;6.07;;
30462;SDS011;17256;43.618;25.336;2022-08-19T15:14:01;6.78;;;6.22;;
30462;SDS011;17256;43.618;25.336;2022-08-19T15:16:27;6.30;;;5.80;;
30462;SDS011;17256;43.618;25.336;2022-08-19T15:18:54;8.85;;;6.40;;
30462;SDS011;17256;43.618;25.336;2022-08-19T15:21:22;7.47;;;6.22;;
30462;SDS011;17256;43.618;25.336;2022-08-19T15:23:49;8.65;;;6.75;;
30462;SDS011;17256;43.618;25.336;2022-08-19T15:26:20;7.68;;;7.00;;
30462;SDS011;17256;43.618;25.336;2022-08-19T15:28:46;7.03;;;6.53;;
30462;SDS011;17256;43.618;25.336;2022-08-19T15:31:12;7.28;;;6.68;;
30462;SDS011;17256;43.618;25.336;2022-08-19T15:33:43;7.55;;;6.40;;
30462;SDS011;17256;43.618;25.336;2022-08-19T15:36:09;7.95;;;5.82;;
30462;SDS011;17256;43.618;25.336;2022-08-19T15:38:37;6.65;;;6.05;;
30462;SDS011;17256;43.618;25.336;2022-08-19T15:41:05;7.22;;;6.53;;
30462;SDS011;17256;43.618;25.336;2022-08-19T15:43:59;8.45;;;7.47;;
30462;SDS011;17256;43.618;25.336;2022-08-19T15:46:32;7.18;;;6.53;;
30462;SDS011;17256;43.618;25.336;2022-08-19T15:48:59;6.97;;;6.38;;
30462;SDS011;17256;43.618;25.336;2022-08-19T15:51:25;8.80;;;6.93;;
30462;SDS011;17256;43.618;25.336;2022-08-19T15:53:53;8.45;;;6.82;;
30462;SDS011;17256;43.618;25.336;2022-08-19T15:56:19;6.78;;;6.25;;
30462;SDS011;17256;43.618;25.336;2022-08-19T15:58:44;7.10;;;6.55;;
30462;SDS011;17256;43.618;25.336;2022-08-19T16:01:29;7.90;;;6.72;;
30462;SDS011;17256;43.618;25.336;2022-08-19T16:04:13;7.78;;;7.05;;
30462;SDS011;17256;43.618;25.336;2022-08-19T16:06:58;9.98;;;7.40;;
30462;SDS011;17256;43.618;25.336;2022-08-19T16:09:26;8.38;;;6.18;;
30462;SDS011;17256;43.618;25.336;2022-08-19T16:11:55;11.10;;;7.32;;
30462;SDS011;17256;43.618;25.336;2022-08-19T16:14:22;6.45;;;5.85;;
30462;SDS011;17256;43.618;25.336;2022-08-19T16:16:48;10.23;;;6.88;;
30462;SDS011;17256;43.618;25.336;2022-08-19T16:19:14;7.53;;;6.57;;
30462;SDS011;17256;43.618;25.336;2022-08-19T16:21:41;8.10;;;6.35;;
30462;SDS011;17256;43.618;25.336;2022-08-19T16:28:17;9.73;;;8.00;;
30462;SDS011;17256;43.618;25.336;2022-08-19T16:30:43;10.63;;;7.80;;
30462;SDS011;17256;43.618;25.336;2022-08-19T16:33:09;8.05;;;7.25;;
30462;SDS011;17256;43.618;25.336;2022-08-19T16:35:35;8.48;;;6.70;;
30462;SDS011;17256;43.618;25.336;2022-08-19T16:38:02;7.43;;;6.82;;
30462;SDS011;17256;43.618;25.336;2022-08-19T16:40:28;8.20;;;7.50;;
30462;SDS011;17256;43.618;25.336;2022-08-19T16:42:53;8.07;;;7.32;;
30462;SDS011;17256;43.618;25.336;2022-08-19T16:45:20;8.43;;;7.72;;
30462;SDS011;17256;43.618;25.336;2022-08-19T16:47:46;7.93;;;7.15;;
30462;SDS011;17256;43.618;25.336;2022-08-19T16:50:12;7.57;;;5.95;;
30462;SDS011;17256;43.618;25.336;2022-08-19T16:52:37;7.15;;;6.60;;
30462;SDS011;17256;43.618;25.336;2022-08-19T16:55:03;11.02;;;7.45;;
30462;SDS011;17256;43.618;25.336;2022-08-19T16:57:30;7.28;;;6.68;;
30462;SDS011;17256;43.618;25.336;2022-08-19T16:59:57;9.20;;;7.38;;
30462;SDS011;17256;43.618;25.336;2022-08-19T17:02:23;7.90;;;7.15;;
30462;SDS011;17256;43.618;25.336;2022-08-19T17:04:49;8.45;;;7.75;;
30462;SDS011;17256;43.618;25.336;2022-08-19T17:07:16;8.57;;;7.75;;
30462;SDS011;17256;43.618;25.336;2022-08-19T17:09:41;10.20;;;8.23;;
30462;SDS011;17256;43.618;25.336;2022-08-19T17:12:07;9.95;;;7.53;;
30462;SDS011;17256;43.618;25.336;2022-08-19T17:14:33;9.88;;;7.88;;
30462;SDS011;17256;43.618;25.336;2022-08-19T17:16:58;7.65;;;6.97;;
30462;SDS011;17256;43.618;25.336;2022-08-19T17:19:24;8.60;;;7.80;;
30462;SDS011;17256;43.618;25.336;2022-08-19T17:21:50;10.07;;;7.67;;
30462;SDS011;17256;43.618;25.336;2022-08-19T17:24:16;10.13;;;7.60;;
30462;SDS011;17256;43.618;25.336;2022-08-19T17:26:41;9.40;;;7.77;;
30462;SDS011;17256;43.618;25.336;2022-08-19T17:29:08;12.00;;;7.67;;
30462;SDS011;17256;43.618;25.336;2022-08-19T17:31:33;10.93;;;7.93;;
30462;SDS011;17256;43.618;25.336;2022-08-19T17:33:59;12.37;;;9.03;;
30462;SDS011;17256;43.618;25.336;2022-08-19T17:36:26;11.50;;;10.40;;
30462;SDS011;17256;43.618;25.336;2022-08-19T17:38:53;9.77;;;8.83;;
30462;SDS011;17256;43.618;25.336;2022-08-19T17:41:21;8.97;;;8.00;;
30462;SDS011;17256;43.618;25.336;2022-08-19T17:43:48;9.93;;;8.03;;
30462;SDS011;17256;43.618;25.336;2022-08-19T17:46:13;7.93;;;7.23;;
30462;SDS011;17256;43.618;25.336;2022-08-19T17:48:41;10.47;;;7.73;;
30462;SDS011;17256;43.618;25.336;2022-08-19T17:51:17;10.27;;;7.10;;
30462;SDS011;17256;43.618;25.336;2022-08-19T17:53:49;8.40;;;7.60;;
30462;SDS011;17256;43.618;25.336;2022-08-19T17:56:17;11.70;;;7.20;;
30462;SDS011;17256;43.618;25.336;2022-08-19T17:58:43;9.20;;;8.23;;
30462;SDS011;17256;43.618;25.336;2022-08-19T18:01:09;8.43;;;7.10;;
30462;SDS011;17256;43.618;25.336;2022-08-19T18:03:37;7.97;;;7.17;;
30462;SDS011;17256;43.618;25.336;2022-08-19T18:06:04;9.80;;;7.63;;
30462;SDS011;17256;43.618;25.336;2022-08-19T18:08:30;9.32;;;8.27;;
30462;SDS011;17256;43.618;25.336;2022-08-19T18:10:57;9.30;;;7.03;;
30462;SDS011;17256;43.618;25.336;2022-08-19T18:13:24;10.13;;;7.60;;
30462;SDS011;17256;43.618;25.336;2022-08-19T18:15:50;9.53;;;7.90;;
30462;SDS011;17256;43.618;25.336;2022-08-19T18:18:16;8.67;;;7.80;;
30462;SDS011;17256;43.618;25.336;2022-08-19T18:20:42;11.50;;;7.80;;
30462;SDS011;17256;43.618;25.336;2022-08-19T18:23:08;10.73;;;8.80;;
30462;SDS011;17256;43.618;25.336;2022-08-19T18:25:34;9.50;;;8.40;;
30462;SDS011;17256;43.618;25.336;2022-08-19T18:27:59;9.50;;;7.17;;
30462;SDS011;17256;43.618;25.336;2022-08-19T18:30:26;11.33;;;8.10;;
30462;SDS011;17256;43.618;25.336;2022-08-19T18:32:58;8.03;;;7.43;;
30462;SDS011;17256;43.618;25.336;2022-08-19T18:35:28;11.40;;;8.17;;
30462;SDS011;17256;43.618;25.336;2022-08-19T18:37:56;11.97;;;8.27;;
30462;SDS011;17256;43.618;25.336;2022-08-19T18:40:27;7.53;;;6.83;;
30462;SDS011;17256;43.618;25.336;2022-08-19T18:43:12;9.27;;;7.67;;
30462;SDS011;17256;43.618;25.336;2022-08-19T18:45:41;8.90;;;7.27;;
30462;SDS011;17256;43.618;25.336;2022-08-19T18:48:26;7.83;;;7.03;;
30462;SDS011;17256;43.618;25.336;2022-08-19T18:51:10;9.43;;;7.47;;
30462;SDS011;17256;43.618;25.336;2022-08-19T18:53:38;8.30;;;7.17;;
30462;SDS011;17256;43.618;25.336;2022-08-19T18:56:06;8.77;;;7.47;;
30462;SDS011;17256;43.618;25.336;2022-08-19T18:58:34;8.13;;;7.10;;
30462;SDS011;17256;43.618;25.336;2022-08-19T19:01:13;8.10;;;7.30;;
30462;SDS011;17256;43.618;25.336;2022-08-19T19:03:46;10.13;;;7.03;;
30462;SDS011;17256;43.618;25.336;2022-08-19T19:06:14;12.13;;;7.67;;
30462;SDS011;17256;43.618;25.336;2022-08-19T19:08:43;8.43;;;7.60;;
30462;SDS011;17256;43.618;25.336;2022-08-19T19:11:10;8.93;;;6.93;;
30462;SDS011;17256;43.618;25.336;2022-08-19T19:13:36;12.57;;;7.23;;